Time;durP1;ratioP1;P1;durP2;ratioP2;P2;SDS_P1;SDS_P2;PMS_P1;PMS_P2;Temp;Humidity;BMP_temperature;BMP_pressure;BME280_temperature;BME280_humidity;BME280_pressure;Samples;Min_cycle;Max_cycle;Signal;HPM_P1;HPM_P2
2021/10/03 00:01:21;;;;;;;18.58;8.15;;;;;;;;;;5017407;28;20049;-71
2021/10/03 00:03:47;;;;;;;16.65;7.85;;;;;;;;;;5013038;28;20085;-71
2021/10/03 00:06:13;;;;;;;14.68;7.97;;;;;;;;;;5008028;28;20052;-71
2021/10/03 00:08:39;;;;;;;16.55;7.75;;;;;;;;;;5004863;28;20037;-71
2021/10/03 00:11:06;;;;;;;18.40;8.05;;;;;;;;;;5008102;28;20044;-71
2021/10/03 00:13:33;;;;;;;17.25;8.93;;;;;;;;;;5012383;28;20033;-70
2021/10/03 00:15:59;;;;;;;15.38;8.50;;;;;;;;;;5021221;28;20549;-70
2021/10/03 00:18:25;;;;;;;14.80;8.43;;;;;;;;;;5020971;28;20126;-71
2021/10/03 00:20:51;;;;;;;17.90;9.30;;;;;;;;;;5022428;28;20477;-71
2021/10/03 00:23:17;;;;;;;20.45;10.10;;;;;;;;;;5020193;28;20537;-71
2021/10/03 00:25:43;;;;;;;18.92;9.65;;;;;;;;;;5015001;28;20038;-71
2021/10/03 00:28:09;;;;;;;15.82;8.95;;;;;;;;;;5018819;28;20128;-71
2021/10/03 00:30:35;;;;;;;14.68;9.05;;;;;;;;;;5021600;28;20040;-71
2021/10/03 00:33:01;;;;;;;14.05;9.48;;;;;;;;;;5036608;28;20068;-71
2021/10/03 00:35:27;;;;;;;16.40;8.75;;;16.10;99.90;;;;;;5014274;28;20510;-71
2021/10/03 00:37:52;;;;;;;16.85;9.30;;;;;;;;;;5009780;28;20624;-70
2021/10/03 00:40:18;;;;;;;20.90;10.98;;;;;;;;;;5005246;28;20132;-71
2021/10/03 00:42:44;;;;;;;17.50;9.30;;;;;;;;;;5005009;28;20065;-70
2021/10/03 00:45:10;;;;;;;15.27;9.40;;;;;;;;;;5009062;28;20033;-70
2021/10/03 00:47:36;;;;;;;21.40;9.82;;;;;;;;;;5010909;28;20077;-70
2021/10/03 00:50:02;;;;;;;23.65;9.20;;;;;;;;;;5007410;28;20081;-70
2021/10/03 00:52:28;;;;;;;19.85;9.95;;;;;;;;;;5004509;28;20052;-70
2021/10/03 00:54:54;;;;;;;24.30;10.93;;;;;;;;;;5007383;28;20033;-71
2021/10/03 00:57:20;;;;;;;22.73;10.38;;;;;;;;;;5012682;28;20034;-70
2021/10/03 00:59:46;;;;;;;20.70;10.27;;;;;;;;;;5016688;28;20034;-71
2021/10/03 01:02:12;;;;;;;23.08;10.68;;;;;;;;;;5021337;28;20068;-70
2021/10/03 01:04:38;;;;;;;20.05;10.60;;;;;;;;;;5020120;28;20433;-71
2021/10/03 01:07:04;;;;;;;19.38;10.80;;;;;;;;;;5015803;28;20037;-70
2021/10/03 01:09:30;;;;;;;20.95;11.43;;;;;;;;;;5011671;28;20030;-71
2021/10/03 01:11:56;;;;;;;20.02;10.15;;;;;;;;;;5006644;28;20026;-70
2021/10/03 01:14:22;;;;;;;19.20;10.32;;;;;;;;;;5003987;28;20519;-71
2021/10/03 01:16:48;;;;;;;20.67;11.55;;;;;;;;;;5006913;28;20100;-71
2021/10/03 01:19:14;;;;;;;19.13;10.73;;;;;;;;;;5011728;28;20047;-70
2021/10/03 01:21:40;;;;;;;19.00;11.07;;;;;;;;;;5016687;28;20709;-71
2021/10/03 01:24:06;;;;;;;17.85;11.20;;;;;;;;;;5019451;28;20072;-70
2021/10/03 01:26:32;;;;;;;18.45;10.82;;;;;;;;;;5019708;28;20037;-71
2021/10/03 01:28:58;;;;;;;19.63;11.40;;;;;;;;;;5014718;28;20037;-70
2021/10/03 01:31:24;;;;;;;21.95;11.25;;;;;;;;;;5010538;28;20697;-71
2021/10/03 01:33:52;;;;;;;20.27;11.35;;;;;;;;;;5016600;28;20090;-70
2021/10/03 01:36:17;;;;;;;20.35;11.07;;;;;;;;;;5002683;28;20818;-71
2021/10/03 01:38:44;;;;;;;18.83;10.55;;;;;;;;;;5006612;28;20149;-71
2021/10/03 01:41:10;;;;;;;24.35;11.00;;;;;;;;;;5010837;28;20616;-70
2021/10/03 01:43:36;;;;;;;22.83;10.45;;;;;;;;;;5016407;28;20964;-71
2021/10/03 01:46:02;;;;;;;19.05;11.07;;;;;;;;;;5020365;28;20038;-71
2021/10/03 01:48:28;;;;;;;20.15;11.02;;;15.90;99.90;;;;;;5019739;28;20034;-71
2021/10/03 01:50:54;;;;;;;18.58;10.55;;;;;;;;;;5016236;28;20052;-71
2021/10/03 01:53:20;;;;;;;20.35;10.93;;;;;;;;;;5011243;28;20130;-71
2021/10/03 01:55:46;;;;;;;25.23;10.63;;;;;;;;;;5007190;28;20055;-71
2021/10/03 01:58:12;;;;;;;18.30;11.40;;;;;;;;;;5003692;28;20053;-71
2021/10/03 02:00:38;;;;;;;17.70;10.70;;;;;;;;;;5017258;28;20171;-72
2021/10/03 02:03:04;;;;;;;15.98;10.00;;;;;;;;;;5013375;28;20134;-73
2021/10/03 02:05:30;;;;;;;17.02;10.52;;;16.10;99.90;;;;;;5008882;28;20038;-73
2021/10/03 02:07:56;;;;;;;19.73;10.15;;;;;;;;;;5003739;28;20387;-73
2021/10/03 02:10:25;;;;;;;18.70;11.05;;;;;;;;;;5004583;28;20053;-70
2021/10/03 02:12:51;;;;;;;19.63;11.10;;;;;;;;;;5007641;28;20116;-70
2021/10/03 02:15:17;;;;;;;19.73;10.60;;;;;;;;;;5013452;28;20120;-70
2021/10/03 02:17:43;;;;;;;16.55;9.88;;;;;;;;;;5016910;28;20033;-71
2021/10/03 02:20:09;;;;;;;24.05;10.13;;;;;;;;;;5022507;28;20037;-70
2021/10/03 02:22:35;;;;;;;18.40;10.93;;;;;;;;;;5006689;28;20030;-71
2021/10/03 02:25:01;;;;;;;19.67;10.38;;;;;;;;;;5010638;28;20088;-70
2021/10/03 02:27:27;;;;;;;16.27;10.43;;;;;;;;;;5014699;28;20080;-71
2021/10/03 02:29:53;;;;;;;18.50;10.70;;;;;;;;;;5019344;28;20026;-71
2021/10/03 02:32:20;;;;;;;19.35;10.20;;;;;;;;;;5018664;28;20625;-72
2021/10/03 02:34:46;;;;;;;19.35;9.68;;;;;;;;;;5014686;28;20033;-71
2021/10/03 02:37:12;;;;;;;18.73;10.10;;;;;;;;;;5010142;28;20033;-71
2021/10/03 02:39:38;;;;;;;24.52;9.77;;;;;;;;;;5020088;28;20061;-71
2021/10/03 02:42:04;;;;;;;16.77;9.57;;;;;;;;;;5020588;28;20792;-71
2021/10/03 02:44:30;;;;;;;17.75;10.15;;;;;;;;;;5016890;28;20033;-70
2021/10/03 02:46:56;;;;;;;15.93;9.85;;;;;;;;;;5011798;28;20088;-71
2021/10/03 02:49:22;;;;;;;16.75;10.40;;;;;;;;;;5007625;28;20033;-71
2021/10/03 02:51:48;;;;;;;20.67;9.93;;;;;;;;;;5003938;28;20038;-71
2021/10/03 02:54:14;;;;;;;24.98;10.00;;;;;;;;;;5003575;28;20034;-71
2021/10/03 02:56:40;;;;;;;16.30;10.45;;;;;;;;;;5008860;28;20072;-71
2021/10/03 02:59:05;;;;;;;17.05;10.45;;;14.90;99.90;;;;;;5013009;28;20045;-72
2021/10/03 03:01:31;;;;;;;16.65;10.00;;;;;;;;;;5016560;28;20033;-74
2021/10/03 03:03:57;;;;;;;18.65;10.45;;;;;;;;;;5019857;28;20041;-69
2021/10/03 03:06:23;;;;;;;20.35;9.63;;;;;;;;;;5018013;28;20037;-70
2021/10/03 03:08:49;;;;;;;15.75;9.98;;;;;;;;;;5011807;28;20124;-70
2021/10/03 03:11:15;;;;;;;20.45;9.95;;;;;;;;;;5008041;28;20026;-71
2021/10/03 03:13:42;;;;;;;21.73;9.82;;;;;;;;;;5002908;28;20026;-71
2021/10/03 03:16:08;;;;;;;18.08;9.45;;;;;;;;;;5003644;28;20107;-71
2021/10/03 03:18:34;;;;;;;19.63;9.43;;;;;;;;;;5007460;28;20741;-71
2021/10/03 03:21:00;;;;;;;17.45;10.30;;;;;;;;;;5012990;28;20520;-70
2021/10/03 03:23:26;;;;;;;15.48;10.32;;;;;;;;;;5018383;28;20387;-71
2021/10/03 03:25:52;;;;;;;17.15;8.98;;;14.60;99.90;;;;;;5023422;28;20079;-71
2021/10/03 03:28:18;;;;;;;15.73;9.93;;;;;;;;;;5020176;28;20497;-70
2021/10/03 03:30:44;;;;;;;18.77;10.25;;;;;;;;;;5015440;28;20120;-71
2021/10/03 03:33:10;;;;;;;17.63;9.48;;;;;;;;;;5011839;28;20577;-71
2021/10/03 03:35:35;;;;;;;16.83;9.82;;;15.80;99.90;;;;;;5023184;28;20047;-71
2021/10/03 03:38:01;;;;;;;15.18;9.38;;;;;;;;;;5021564;28;20208;-70
2021/10/03 03:40:27;;;;;;;17.95;9.65;;;;;;;;;;5018020;28;20029;-71
2021/10/03 03:42:53;;;;;;;15.57;9.50;;;;;;;;;;5020776;28;20113;-73
2021/10/03 03:45:19;;;;;;;16.40;9.88;;;;;;;;;;5008572;28;20061;-73
2021/10/03 03:47:45;;;;;;;15.68;8.85;;;;;;;;;;5005184;28;20483;-71
2021/10/03 03:50:11;;;;;;;14.68;9.50;;;;;;;;;;5008655;28;20094;-70
2021/10/03 03:52:37;;;;;;;16.55;9.73;;;;;;;;;;5013604;28;20109;-70
2021/10/03 03:55:03;;;;;;;17.25;9.63;;;;;;;;;;5021303;28;20128;-71
2021/10/03 03:57:29;;;;;;;16.92;9.25;;;;;;;;;;5021077;28;20108;-73
2021/10/03 03:59:55;;;;;;;16.30;9.85;;;;;;;;;;5021639;28;20087;-73
2021/10/03 04:02:21;;;;;;;15.40;9.52;;;14.70;99.90;;;;;;5016338;28;20041;-71
2021/10/03 04:04:47;;;;;;;16.50;9.10;;;;;;;;;;5012686;28;20117;-70
2021/10/03 04:07:13;;;;;;;19.95;9.88;;;;;;;;;;5007869;28;20033;-70
2021/10/03 04:09:39;;;;;;;15.43;9.23;;;;;;;;;;5005007;28;20852;-70
2021/10/03 04:12:05;;;;;;;16.85;9.05;;;;;;;;;;5018349;28;20441;-71
2021/10/03 04:14:31;;;;;;;19.17;9.18;;;;;;;;;;5014989;28;20029;-71
2021/10/03 04:16:56;;;;;;;13.65;9.43;;;;;;;;;;5014169;28;20136;-70
2021/10/03 04:19:22;;;;;;;16.90;8.73;;;;;;;;;;5011293;28;20037;-71
2021/10/03 04:21:48;;;;;;;17.33;9.38;;;;;;;;;;5010138;28;20025;-71
2021/10/03 04:24:14;;;;;;;16.20;8.80;;;;;;;;;;5021124;28;20041;-71
2021/10/03 04:26:40;;;;;;;15.27;9.07;;;;;;;;;;5020727;28;20067;-70
2021/10/03 04:29:06;;;;;;;16.13;8.80;;;;;;;;;;5018787;28;20522;-70
2021/10/03 04:31:32;;;;;;;15.50;9.57;;;;;;;;;;5022723;28;20510;-71
2021/10/03 04:34:00;;;;;;;16.70;9.50;;;;;;;;;;5017372;28;20040;-71
2021/10/03 04:36:26;;;;;;;16.02;9.52;;;;;;;;;;5013411;28;20030;-71
2021/10/03 04:38:52;;;;;;;14.88;9.23;;;;;;;;;;5014057;28;20036;-70
2021/10/03 04:41:18;;;;;;;17.95;9.20;;;;;;;;;;5008763;28;20077;-71
2021/10/03 04:43:44;;;;;;;16.40;8.48;;;;;;;;;;5020240;28;20040;-71
2021/10/03 04:46:10;;;;;;;13.57;8.77;;;;;;;;;;5011562;28;20029;-71
2021/10/03 04:48:36;;;;;;;14.85;9.57;;;15.50;99.90;;;;;;5013958;28;20123;-71
2021/10/03 04:51:02;;;;;;;15.07;9.13;;;;;;;;;;5018730;28;20418;-70
2021/10/03 04:53:28;;;;;;;14.88;8.85;;;;;;;;;;5022739;28;20029;-71
2021/10/03 04:55:54;;;;;;;14.77;8.88;;;;;;;;;;5020015;28;20146;-71
2021/10/03 04:58:20;;;;;;;20.23;9.00;;;;;;;;;;5016512;28;20125;-71
2021/10/03 05:00:46;;;;;;;17.52;9.07;;;;;;;;;;5016842;28;20038;-70
2021/10/03 05:03:11;;;;;;;17.83;9.05;;;;;;;;;;5016871;28;20042;-70
2021/10/03 05:05:37;;;;;;;17.65;8.90;;;;;;;;;;5020430;28;20043;-73
2021/10/03 05:08:03;;;;;;;14.90;9.10;;;14.70;99.90;;;;;;5015566;28;20219;-72
2021/10/03 05:10:29;;;;;;;18.48;9.23;;;;;;;;;;5014961;28;20029;-71
2021/10/03 05:12:55;;;;;;;14.70;9.27;;;;;;;;;;5018982;28;20044;-71
2021/10/03 05:15:21;;;;;;;17.52;9.55;;;;;;;;;;5018631;28;20666;-71
2021/10/03 05:17:47;;;;;;;17.25;9.50;;;;;;;;;;5019460;28;20124;-70
2021/10/03 05:20:13;;;;;;;14.57;9.82;;;;;;;;;;5013968;28;20033;-70
2021/10/03 05:22:39;;;;;;;14.80;8.95;;;;;;;;;;5014636;28;20032;-73
2021/10/03 05:25:05;;;;;;;16.75;8.80;;;;;;;;;;5021076;28;20509;-70
2021/10/03 05:27:31;;;;;;;21.63;9.10;;;;;;;;;;5019738;28;20029;-71
2021/10/03 05:29:56;;;;;;;15.95;8.27;;;15.20;99.90;;;;;;5009916;28;20036;-72
2021/10/03 05:32:22;;;;;;;15.60;9.35;;;;;;;;;;5014027;28;20029;-71
2021/10/03 05:34:48;;;;;;;13.93;9.05;;;;;;;;;;5016254;28;20033;-72
2021/10/03 05:37:14;;;;;;;15.07;9.35;;;;;;;;;;5021139;28;20325;-71
2021/10/03 05:39:40;;;;;;;16.95;8.75;;;;;;;;;;5016653;28;20034;-72
2021/10/03 05:42:06;;;;;;;13.93;9.25;;;;;;;;;;5011703;28;20030;-73
2021/10/03 05:44:32;;;;;;;13.30;8.82;;;;;;;;;;5006187;28;20554;-71
2021/10/03 05:46:58;;;;;;;17.65;9.15;;;;;;;;;;5016579;28;20782;-72
2021/10/03 05:49:24;;;;;;;18.13;8.75;;;;;;;;;;5004695;28;20045;-70
2021/10/03 05:51:50;;;;;;;15.98;8.93;;;;;;;;;;5008291;28;20029;-71
2021/10/03 05:54:16;;;;;;;15.63;9.02;;;;;;;;;;5013116;28;20695;-71
2021/10/03 05:56:42;;;;;;;17.67;9.43;;;;;;;;;;5017583;28;20041;-72
2021/10/03 05:59:12;;;;;;;14.55;9.68;;;;;;;;;;5008258;28;20108;-71
2021/10/03 06:01:38;;;;;;;14.88;9.00;;;;;;;;;;5013049;28;20041;-71
2021/10/03 06:04:04;;;;;;;13.50;8.95;;;;;;;;;;5015856;28;20036;-71
2021/10/03 06:06:30;;;;;;;15.73;10.10;;;;;;;;;;5008636;28;20037;-72
2021/10/03 06:08:56;;;;;;;13.95;9.57;;;;;;;;;;5003977;28;20038;-72
2021/10/03 06:11:22;;;;;;;20.63;9.43;;;;;;;;;;5015650;28;20109;-72
2021/10/03 06:13:47;;;;;;;15.23;9.18;;;;;;;;;;5016853;28;20371;-71
2021/10/03 06:16:13;;;;;;;14.70;9.00;;;;;;;;;;5014018;28;20512;-71
2021/10/03 06:18:39;;;;;;;15.45;10.00;;;;;;;;;;5017399;28;20065;-70
2021/10/03 06:21:12;;;;;;;18.95;9.40;;;;;;;;;;5020407;28;20037;-71
2021/10/03 06:23:38;;;;;;;18.40;9.43;;;;;;;;;;5019268;28;20769;-71
2021/10/03 06:26:04;;;;;;;17.25;9.38;;;;;;;;;;5012385;28;20038;-70
2021/10/03 06:28:30;;;;;;;19.25;9.55;;;;;;;;;;5014449;28;20034;-69
2021/10/03 06:30:56;;;;;;;19.48;10.15;;;;;;;;;;5016248;28;20086;-67
2021/10/03 06:33:22;;;;;;;17.52;9.48;;;;;;;;;;5004791;28;20037;-68
2021/10/03 06:35:48;;;;;;;18.05;9.38;;;;;;;;;;5013301;28;20117;-67
2021/10/03 06:38:14;;;;;;;16.33;9.82;;;;;;;;;;5014571;28;20033;-67
2021/10/03 06:40:42;;;;;;;16.10;8.70;;;;;;;;;;5012151;28;20730;-67
2021/10/03 06:43:07;;;;;;;18.27;9.55;;;15.50;99.90;;;;;;5003297;28;20116;-67
2021/10/03 06:45:33;;;;;;;15.23;9.40;;;;;;;;;;5011787;28;20052;-66
2021/10/03 06:47:59;;;;;;;17.65;9.63;;;;;;;;;;5014097;28;20118;-67
2021/10/03 06:50:26;;;;;;;16.80;9.55;;;;;;;;;;5006563;28;20052;-66
2021/10/03 06:52:52;;;;;;;15.80;9.25;;;;;;;;;;5012502;28;20030;-67
2021/10/03 06:55:18;;;;;;;28.45;13.60;;;;;;;;;;5018417;28;20677;-67
2021/10/03 06:57:44;;;;;;;16.52;10.20;;;;;;;;;;5013564;28;20041;-67
2021/10/03 07:00:10;;;;;;;18.08;9.40;;;;;;;;;;5014552;28;20076;-67
2021/10/03 07:02:36;;;;;;;26.30;9.68;;;;;;;;;;5011795;28;20045;-67
2021/10/03 07:05:01;;;;;;;18.10;9.13;;;;;;;;;;5006760;28;20030;-67
2021/10/03 07:07:28;;;;;;;19.88;9.85;;;;;;;;;;5012269;28;20656;-67
2021/10/03 07:09:54;;;;;;;14.00;9.05;;;;;;;;;;4998256;28;20113;-68
2021/10/03 07:12:20;;;;;;;15.90;10.23;;;;;;;;;;5015152;28;20173;-68
2021/10/03 07:14:46;;;;;;;13.75;9.07;;;;;;;;;;5009755;28;20117;-68
2021/10/03 07:17:12;;;;;;;14.25;9.35;;;15.80;99.90;;;;;;5010542;28;20541;-67
2021/10/03 07:19:38;;;;;;;20.13;10.35;;;;;;;;;;5016646;28;20642;-68
2021/10/03 07:22:04;;;;;;;17.13;9.38;;;;;;;;;;5020038;28;20199;-67
2021/10/03 07:24:30;;;;;;;16.23;9.82;;;;;;;;;;5013997;28;20026;-69
2021/10/03 07:26:56;;;;;;;16.17;9.80;;;;;;;;;;5014733;28;20069;-69
2021/10/03 07:29:22;;;;;;;16.55;9.88;;;;;;;;;;5012349;28;20061;-68
2021/10/03 07:31:48;;;;;;;22.20;9.70;;;;;;;;;;5018168;28;20029;-68
2021/10/03 07:34:14;;;;;;;17.75;9.48;;;;;;;;;;5018098;28;20437;-68
2021/10/03 07:36:40;;;;;;;17.88;10.00;;;;;;;;;;5017585;28;20036;-68
2021/10/03 07:39:06;;;;;;;16.50;9.30;;;;;;;;;;5020870;28;20517;-68
2021/10/03 07:41:32;;;;;;;18.48;8.85;;;;;;;;;;5018313;28;20072;-69
2021/10/03 07:43:58;;;;;;;14.40;9.40;;;;;;;;;;5016306;28;20347;-68
2021/10/03 07:46:24;;;;;;;20.35;9.63;;;;;;;;;;5018458;28;20170;-68
2021/10/03 07:48:50;;;;;;;15.32;9.73;;;;;;;;;;5013193;28;20124;-67
2021/10/03 07:51:15;;;;;;;15.55;10.13;;;15.20;99.90;;;;;;5015054;28;20076;-68
2021/10/03 07:53:41;;;;;;;14.10;8.73;;;;;;;;;;5016948;28;20453;-68
2021/10/03 07:56:07;;;;;;;13.68;9.07;;;;;;;;;;5010221;28;20026;-68
2021/10/03 07:58:33;;;;;;;15.60;9.45;;;;;;;;;;5014627;28;20057;-72
2021/10/03 08:00:59;;;;;;;18.15;9.07;;;;;;;;;;5016643;28;20096;-68
2021/10/03 08:03:25;;;;;;;15.35;9.77;;;;;;;;;;5017379;28;20486;-69
2021/10/03 08:05:51;;;;;;;16.65;10.80;;;;;;;;;;5017183;28;20812;-69
2021/10/03 08:08:17;;;;;;;15.93;9.63;;;;;;;;;;5020511;28;20037;-69
2021/10/03 08:10:43;;;;;;;16.27;9.27;;;;;;;;;;5017021;28;20025;-69
2021/10/03 08:13:11;;;;;;;16.70;9.13;;;;;;;;;;5019127;28;20041;-68
2021/10/03 08:15:39;;;;;;;17.27;8.95;;;15.40;99.90;;;;;;5013961;28;20096;-68
2021/10/03 08:18:05;;;;;;;21.60;9.68;;;;;;;;;;5019244;28;20025;-68
2021/10/03 08:20:30;;;;;;;16.90;9.02;;;15.90;99.90;;;;;;5022725;28;20172;-69
2021/10/03 08:22:56;;;;;;;15.95;9.25;;;;;;;;;;5020290;28;20558;-68
2021/10/03 08:25:22;;;;;;;22.13;9.13;;;;;;;;;;5016285;28;20426;-68
2021/10/03 08:27:48;;;;;;;14.98;9.13;;;;;;;;;;5010859;28;20126;-68
2021/10/03 08:30:14;;;;;;;18.13;8.63;;;;;;;;;;5009355;28;20138;-68
2021/10/03 08:32:40;;;;;;;16.50;8.90;;;;;;;;;;5022157;28;20486;-69
2021/10/03 08:35:06;;;;;;;14.18;9.43;;;;;;;;;;5016185;28;20057;-68
2021/10/03 08:37:32;;;;;;;17.73;10.23;;;;;;;;;;5019914;28;20657;-68
2021/10/03 08:39:59;;;;;;;16.38;8.95;;;;;;;;;;5017750;28;20774;-69
2021/10/03 08:42:25;;;;;;;18.73;8.43;;;;;;;;;;5021291;28;20034;-68
2021/10/03 08:44:51;;;;;;;16.17;8.55;;;;;;;;;;5017094;28;20029;-69
2021/10/03 08:47:17;;;;;;;14.95;8.45;;;;;;;;;;5015043;28;20555;-69
2021/10/03 08:49:43;;;;;;;14.43;8.70;;;;;;;;;;5015558;28;20140;-69
2021/10/03 08:52:09;;;;;;;19.20;9.25;;;;;;;;;;5005473;28;20544;-69
2021/10/03 08:54:35;;;;;;;13.32;8.40;;;;;;;;;;5015478;28;20037;-68
2021/10/03 08:57:01;;;;;;;14.20;8.48;;;;;;;;;;5015323;28;20122;-68
2021/10/03 08:59:27;;;;;;;13.10;8.68;;;;;;;;;;5012101;28;20033;-68
2021/10/03 09:01:53;;;;;;;16.13;8.73;;;;;;;;;;5019804;28;20037;-68
2021/10/03 09:04:19;;;;;;;32.15;17.35;;;;;;;;;;5012810;28;20090;-70
2021/10/03 09:06:45;;;;;;;17.73;9.20;;;;;;;;;;5019575;28;20355;-69
2021/10/03 09:09:11;;;;;;;13.32;8.88;;;;;;;;;;5015832;28;20044;-69
2021/10/03 09:11:39;;;;;;;15.32;8.57;;;;;;;;;;5010959;28;20033;-68
2021/10/03 09:14:06;;;;;;;13.88;8.52;;;;;;;;;;5006339;28;20129;-69
2021/10/03 09:16:36;;;;;;;22.60;8.90;;;;;;;;;;5010594;28;20044;-69
2021/10/03 09:19:02;;;;;;;13.00;7.90;;;;;;;;;;5009394;28;20048;-69
2021/10/03 09:21:28;;;;;;;15.65;9.20;;;;;;;;;;5015801;28;20033;-69
2021/10/03 09:23:54;;;;;;;16.38;8.40;;;;;;;;;;5017419;28;20037;-69
2021/10/03 09:26:20;;;;;;;12.98;7.82;;;;;;;;;;5017200;28;20033;-69
2021/10/03 09:28:46;;;;;;;12.10;8.38;;;17.40;99.90;;;;;;5017999;28;20065;-70
2021/10/03 09:31:12;;;;;;;16.02;8.15;;;;;;;;;;5013005;28;20520;-69
2021/10/03 09:33:39;;;;;;;13.32;8.85;;;;;;;;;;5014313;28;20158;-69
2021/10/03 09:36:04;;;;;;;14.93;8.50;;;;;;;;;;5010028;28;20055;-69
2021/10/03 09:38:30;;;;;;;16.10;8.73;;;;;;;;;;5019843;28;20038;-69
2021/10/03 09:40:56;;;;;;;11.63;8.13;;;;;;;;;;5017689;28;20038;-68
2021/10/03 09:43:22;;;;;;;14.68;8.45;;;;;;;;;;5012997;28;20104;-70
2021/10/03 09:45:48;;;;;;;25.23;8.50;;;;;;;;;;5016403;28;20038;-70
2021/10/03 09:48:14;;;;;;;16.23;8.10;;;;;;;;;;5016786;28;20128;-68
2021/10/03 09:50:40;;;;;;;19.23;10.05;;;;;;;;;;5015314;28;20084;-70
2021/10/03 09:53:06;;;;;;;14.80;7.25;;;;;;;;;;5017936;28;20045;-65
2021/10/03 09:55:33;;;;;;;11.43;8.30;;;;;;;;;;5034547;28;20029;-66
2021/10/03 09:57:59;;;;;;;16.55;8.25;;;;;;;;;;5014889;28;20043;-64
2021/10/03 10:00:25;;;;;;;28.42;17.17;;;;;;;;;;5019742;28;20037;-64
2021/10/03 10:02:51;;;;;;;13.70;7.65;;;;;;;;;;5015459;28;20018;-64
2021/10/03 10:05:17;;;;;;;13.50;7.75;;;;;;;;;;5011431;28;20869;-64
2021/10/03 10:07:42;;;;;;;11.93;7.75;;;17.50;99.90;;;;;;5011696;28;20034;-64
2021/10/03 10:10:08;;;;;;;16.80;7.35;;;;;;;;;;5005466;28;20121;-64
2021/10/03 10:12:34;;;;;;;11.70;7.82;;;;;;;;;;5007014;28;20102;-65
2021/10/03 10:15:00;;;;;;;14.77;7.85;;;;;;;;;;5009083;28;20048;-65
2021/10/03 10:17:26;;;;;;;12.90;7.15;;;;;;;;;;5013274;28;20049;-65
2021/10/03 10:19:55;;;;;;;12.93;7.60;;;;;;;;;;5014266;28;20044;-64
2021/10/03 10:22:22;;;;;;;13.05;7.18;;;;;;;;;;5018912;28;20077;-64
2021/10/03 10:24:49;;;;;;;13.18;7.18;;;;;;;;;;5015303;28;20056;-65
2021/10/03 10:27:15;;;;;;;11.55;6.78;;;;;;;;;;5012355;28;20048;-65
2021/10/03 10:29:41;;;;;;;16.02;7.25;;;;;;;;;;5006286;28;20022;-64
2021/10/03 10:32:07;;;;;;;10.90;6.57;;;;;;;;;;5004964;28;20140;-64
2021/10/03 10:34:33;;;;;;;12.32;6.93;;;;;;;;;;5017230;28;20033;-64
2021/10/03 10:36:59;;;;;;;9.75;7.00;;;;;;;;;;5017836;28;20057;-64
2021/10/03 10:39:25;;;;;;;12.98;7.20;;;;;;;;;;5017135;28;20034;-64
2021/10/03 10:41:51;;;;;;;16.02;6.97;;;;;;;;;;5007980;28;20587;-65
2021/10/03 10:44:17;;;;;;;14.07;7.00;;;;;;;;;;5007728;28;20069;-64
2021/10/03 10:46:43;;;;;;;36.08;21.02;;;;;;;;;;5021086;28;20128;-64
2021/10/03 10:49:09;;;;;;;15.88;6.88;;;;;;;;;;5016804;28;20045;-65
2021/10/03 10:51:35;;;;;;;12.57;6.45;;;;;;;;;;5011234;28;20064;-64
2021/10/03 10:54:01;;;;;;;8.95;6.40;;;;;;;;;;5016592;28;20057;-64
2021/10/03 10:56:27;;;;;;;10.77;7.22;;;;;;;;;;5019723;28;20041;-64
2021/10/03 10:58:53;;;;;;;11.70;6.43;;;;;;;;;;5011865;28;20498;-64
2021/10/03 11:01:19;;;;;;;11.30;6.88;;;;;;;;;;5017521;28;20065;-64
2021/10/03 11:03:49;;;;;;;13.63;7.82;;;;;;;;;;5012119;28;20088;-65
2021/10/03 11:06:15;;;;;;;9.60;6.78;;;;;;;;;;5012753;28;20038;-65
2021/10/03 11:08:41;;;;;;;11.00;6.43;;;;;;;;;;5013123;28;20116;-64
2021/10/03 11:11:10;;;;;;;9.02;6.60;;;;;;;;;;5014927;28;20029;-64
2021/10/03 11:13:36;;;;;;;11.27;6.25;;;;;;;;;;5011960;28;20161;-64
2021/10/03 11:16:03;;;;;;;10.15;6.45;;;;;;;;;;5019183;28;20452;-64
2021/10/03 11:18:29;;;;;;;9.60;6.95;;;;;;;;;;5012638;28;20033;-64
2021/10/03 11:20:57;;;;;;;13.18;6.55;;;;;;;;;;5017105;28;20405;-64
2021/10/03 11:23:23;;;;;;;12.00;6.95;;;;;;;;;;5014949;28;20041;-65
2021/10/03 11:25:49;;;;;;;11.40;6.45;;;;;;;;;;5020701;28;20779;-64
2021/10/03 11:28:15;;;;;;;11.05;6.32;;;20.80;98.10;;;;;;5020827;28;20025;-64
2021/10/03 11:30:41;;;;;;;12.52;6.88;;;;;;;;;;5020276;28;20033;-64
2021/10/03 11:33:07;;;;;;;9.90;6.60;;;;;;;;;;5017340;28;20033;-64
2021/10/03 11:35:33;;;;;;;15.25;6.88;;;;;;;;;;5018441;28;20057;-64
2021/10/03 11:37:59;;;;;;;11.50;7.03;;;;;;;;;;5010209;28;20544;-64
2021/10/03 11:40:27;;;;;;;12.35;6.72;;;;;;;;;;5006624;28;20584;-64
2021/10/03 11:42:53;;;;;;;10.35;6.45;;;;;;;;;;5016765;28;20037;-64
2021/10/03 11:45:20;;;;;;;11.48;6.97;;;;;;;;;;5012089;28;20112;-64
2021/10/03 11:47:45;;;;;;;14.38;6.63;;;20.70;99.90;;;;;;5014954;28;20042;-63
2021/10/03 11:50:12;;;;;;;8.90;6.32;;;;;;;;;;5016483;28;20030;-71
2021/10/03 11:52:38;;;;;;;11.38;6.53;;;;;;;;;;5017609;28;20110;-71
2021/10/03 11:55:04;;;;;;;10.27;6.88;;;21.90;99.90;;;;;;5013517;28;20121;-71
2021/10/03 11:57:30;;;;;;;15.65;10.20;;;;;;;;;;5018379;28;20021;-73
2021/10/03 11:59:55;;;;;;;14.38;7.28;;;;;;;;;;5022232;28;20436;-72
2021/10/03 12:02:23;;;;;;;20.30;7.40;;;22.90;97.80;;;;;;5020303;28;20032;-68
2021/10/03 12:04:49;;;;;;;13.05;7.20;;;;;;;;;;5017499;28;20131;-71
2021/10/03 12:07:15;;;;;;;12.85;6.60;;;;;;;;;;5012042;28;20800;-70
2021/10/03 12:09:41;;;;;;;11.18;6.15;;;;;;;;;;5018677;28;20555;-71
2021/10/03 12:12:07;;;;;;;12.48;7.35;;;;;;;;;;5006719;28;20567;-72
2021/10/03 12:14:33;;;;;;;15.90;6.90;;;;;;;;;;5012795;28;20113;-69
2021/10/03 12:16:59;;;;;;;10.70;6.63;;;;;;;;;;5011742;28;20038;-71
2021/10/03 12:19:30;;;;;;;15.13;6.70;;;;;;;;;;5017197;28;20063;-72
2021/10/03 12:21:56;;;;;;;10.55;7.13;;;;;;;;;;5005443;28;20063;-72
2021/10/03 12:24:22;;;;;;;10.00;6.63;;;;;;;;;;5018454;28;20128;-71
2021/10/03 12:26:49;;;;;;;10.43;7.03;;;;;;;;;;5019626;28;20030;-72
2021/10/03 12:29:18;;;;;;;11.27;6.45;;;;;;;;;;5014477;28;20049;-71
2021/10/03 12:31:44;;;;;;;13.20;6.38;;;;;;;;;;5019579;28;20380;-71
2021/10/03 12:34:10;;;;;;;22.75;12.75;;;;;;;;;;5017386;28;20033;-72
2021/10/03 12:36:36;;;;;;;18.13;10.65;;;;;;;;;;5007501;28;20510;-71
2021/10/03 12:39:02;;;;;;;10.93;6.22;;;;;;;;;;5012347;28;20661;-71
2021/10/03 12:41:28;;;;;;;9.65;6.80;;;;;;;;;;5018051;28;20033;-71
2021/10/03 12:43:57;;;;;;;11.10;6.18;;;;;;;;;;5010194;28;20490;-72
2021/10/03 12:46:23;;;;;;;11.93;6.70;;;;;;;;;;5014277;28;20079;-69
2021/10/03 12:48:49;;;;;;;11.00;7.10;;;;;;;;;;5019906;28;20060;-66
2021/10/03 12:51:15;;;;;;;13.35;7.45;;;;;;;;;;5011833;28;20040;-69
2021/10/03 12:53:40;;;;;;;12.00;6.13;;;22.70;97.00;;;;;;5017441;28;20069;-70
2021/10/03 12:56:06;;;;;;;10.85;6.47;;;;;;;;;;5003389;28;20034;-70
2021/10/03 12:58:32;;;;;;;8.65;6.28;;;;;;;;;;5010093;28;20071;-71
2021/10/03 13:00:58;;;;;;;10.23;6.10;;;;;;;;;;5015477;28;20037;-71
2021/10/03 13:03:24;;;;;;;11.60;6.22;;;;;;;;;;5008886;28;20037;-71
2021/10/03 13:05:50;;;;;;;9.95;6.20;;;;;;;;;;5006820;28;20057;-69
2021/10/03 13:08:16;;;;;;;9.48;6.43;;;;;;;;;;5009807;28;20041;-70
2021/10/03 13:10:42;;;;;;;8.68;6.13;;;;;;;;;;5011149;28;20033;-71
2021/10/03 13:13:08;;;;;;;9.20;6.00;;;;;;;;;;5016873;28;20061;-70
2021/10/03 13:15:34;;;;;;;10.25;6.18;;;23.30;96.70;;;;;;5019121;28;20029;-71
2021/10/03 13:17:59;;;;;;;12.55;6.00;;;23.30;95.90;;;;;;5011688;28;20038;-71
2021/10/03 13:20:25;;;;;;;9.25;6.20;;;23.50;98.70;;;;;;5010109;28;20033;-68
2021/10/03 13:22:50;;;;;;;9.15;5.88;;;23.20;96.20;;;;;;5012003;28;20033;-71
2021/10/03 13:25:16;;;;;;;13.48;6.03;;;23.20;95.10;;;;;;5018904;28;20116;-71
2021/10/03 13:27:41;;;;;;;9.88;6.03;;;23.30;95.20;;;;;;5009469;28;20100;-71
2021/10/03 13:30:07;;;;;;;13.63;7.30;;;23.40;95.10;;;;;;5015809;28;20034;-72
2021/10/03 13:32:32;;;;;;;9.75;6.20;;;23.20;94.70;;;;;;5007678;28;20410;-68
2021/10/03 13:34:58;;;;;;;16.27;5.85;;;23.20;94.60;;;;;;5018180;28;20040;-71
2021/10/03 13:37:23;;;;;;;11.85;5.85;;;23.30;94.40;;;;;;5014724;28;20040;-72
2021/10/03 13:39:49;;;;;;;7.07;5.50;;;23.20;94.70;;;;;;5007525;28;20153;-71
2021/10/03 13:42:14;;;;;;;9.60;6.22;;;23.20;94.80;;;;;;5013385;28;20079;-69
2021/10/03 13:44:40;;;;;;;9.63;6.25;;;23.10;94.40;;;;;;5011692;28;20037;-71
2021/10/03 13:47:05;;;;;;;8.00;5.43;;;23.20;93.70;;;;;;5009160;28;20037;-69
2021/10/03 13:49:31;;;;;;;9.25;5.75;;;23.20;94.50;;;;;;5014457;28;20033;-71
2021/10/03 13:51:56;;;;;;;11.18;5.93;;;23.10;94.40;;;;;;5021083;28;20041;-71
2021/10/03 13:54:22;;;;;;;10.38;5.78;;;23.20;94.00;;;;;;5015466;28;20028;-71
2021/10/03 13:56:47;;;;;;;8.10;5.32;;;23.10;94.30;;;;;;5012779;28;20029;-69
2021/10/03 13:59:13;;;;;;;6.55;5.40;;;23.00;96.00;;;;;;5016550;28;20579;-72
2021/10/03 14:01:38;;;;;;;11.18;5.40;;;23.00;93.80;;;;;;5020430;28;20037;-71
2021/10/03 14:04:04;;;;;;;10.32;5.72;;;23.00;93.30;;;;;;5016333;28;20029;-72